Time;durP1;ratioP1;P1;durP2;ratioP2;P2;SDS_P1;SDS_P2;PMS_P1;PMS_P2;Temp;Humidity;BMP_temperature;BMP_pressure;BME280_temperature;BME280_humidity;BME280_pressure;Samples;Min_cycle;Max_cycle;Signal;HPM_P1;HPM_P2
2024/01/10 00:02:21;;;;;;;116.70;55.20;;;;;;;-8.44;69.71;102361.48;111114;244;38690;-65
2024/01/10 00:04:58;;;;;;;125.40;56.80;;;;;;;-8.43;69.69;102356.48;111076;243;38485;-66
2024/01/10 00:07:38;;;;;;;120.70;55.20;;;;;;;-8.47;69.70;102350.98;111087;243;38370;-66
2024/01/10 00:10:13;;;;;;;118.60;55.60;;;;;;;-8.52;69.54;102352.84;111090;243;38324;-66
2024/01/10 00:12:52;;;;;;;122.60;55.50;;;;;;;-8.62;69.32;102358.84;111084;243;39017;-66
2024/01/10 00:15:30;;;;;;;124.00;57.60;;;;;;;-8.76;69.32;102359.40;111103;243;38588;-66
2024/01/10 00:18:07;;;;;;;116.60;53.30;;;;;;;-8.87;69.37;102358.96;111077;243;38517;-65
2024/01/10 00:20:42;;;;;;;108.20;50.40;;;;;;;-8.97;69.45;102352.31;111107;243;38796;-65
2024/01/10 00:23:17;;;;;;;110.60;51.00;;;;;;;-9.00;69.66;102356.80;111080;243;38269;-66
2024/01/10 00:25:56;;;;;;;105.10;51.00;;;;;;;-9.02;69.73;102356.66;111163;243;38311;-66
2024/01/10 00:28:30;;;;;;;112.70;51.30;;;;;;;-9.02;69.85;102356.30;111104;243;38405;-66
2024/01/10 00:31:07;;;;;;;111.60;50.60;;;;;;;-8.97;69.96;102360.93;111147;243;38296;-66
2024/01/10 00:33:44;;;;;;;107.30;54.10;;;;;;;-8.90;70.05;102363.28;111088;243;39099;-66
2024/01/10 00:36:19;;;;;;;117.00;55.20;;;;;;;-8.83;70.00;102363.43;111121;243;38268;-66
2024/01/10 00:38:58;;;;;;;107.60;52.00;;;;;;;-8.78;69.92;102362.93;111079;243;39194;-67
2024/01/10 00:41:37;;;;;;;107.10;49.60;;;;;;;-8.74;69.82;102361.38;111097;243;38554;-67
2024/01/10 00:44:17;;;;;;;104.10;47.80;;;;;;;-8.69;69.87;102358.20;111060;243;38543;-67
2024/01/10 00:46:54;;;;;;;106.50;50.70;;;;;;;-8.62;69.77;102357.33;111089;244;38259;-66
2024/01/10 00:49:35;;;;;;;114.70;53.70;;;;;;;-8.58;69.67;102363.86;110994;244;38277;-66
2024/01/10 00:52:14;;;;;;;119.20;54.90;;;;;;;-8.56;69.63;102365.53;111093;243;38048;-67
2024/01/10 00:54:54;;;;;;;125.40;58.70;;;;;;;-8.60;69.47;102370.17;111061;243;38336;-67
2024/01/10 00:57:32;;;;;;;123.10;56.30;;;;;;;-8.67;69.26;102366.29;111089;243;38467;-66
2024/01/10 01:00:08;;;;;;;118.40;56.30;;;;;;;-8.77;69.36;102363.54;110999;243;176500;-66
2024/01/10 01:02:42;;;;;;;129.30;59.60;;;;;;;-8.90;69.32;102363.98;111072;244;38411;-65
2024/01/10 01:05:21;;;;;;;133.00;59.50;;;;;;;-9.02;69.44;102357.64;111127;243;40038;-65
2024/01/10 01:07:58;;;;;;;122.20;53.00;;;;;;;-9.12;69.66;102355.25;111128;244;38378;-65
2024/01/10 01:10:35;;;;;;;114.70;53.50;;;;;;;-9.21;69.68;102351.40;111096;243;39847;-66
2024/01/10 01:13:16;;;;;;;106.50;49.20;;;;;;;-9.24;69.92;102345.24;111082;244;38394;-64
2024/01/10 01:15:52;;;;;;;106.10;50.00;;;;;;;-9.22;69.97;102349.92;111051;244;176518;-65
2024/01/10 01:18:29;;;;;;;110.70;50.80;;;;;;;-9.20;70.18;102345.34;111105;244;38364;-66
2024/01/10 01:21:08;;;;;;;110.60;50.30;;;;;;;-9.13;70.52;102339.96;111113;244;38837;-66
2024/01/10 01:23:45;;;;;;;110.10;50.10;;;;;;;-9.01;70.71;102332.51;111085;243;38621;-66
2024/01/10 01:26:26;;;;;;;108.30;49.60;;;;;;;-8.90;70.75;102331.85;111121;243;38319;-66
2024/01/10 01:29:04;;;;;;;106.30;48.90;;;;;;;-8.84;70.48;102330.42;110989;244;38550;-65
2024/01/10 01:31:45;;;;;;;103.10;48.80;;;;;;;-8.76;70.59;102324.37;111117;243;38330;-66
2024/01/10 01:34:22;;;;;;;105.30;47.00;;;;;;;-8.66;70.52;102321.86;111098;243;38744;-66
2024/01/10 01:36:57;;;;;;;106.50;48.50;;;;;;;-8.63;70.25;102318.66;111092;243;38622;-66
2024/01/10 01:39:35;;;;;;;111.10;51.70;;;;;;;-8.57;70.29;102308.94;111096;243;38820;-66
2024/01/10 01:42:13;;;;;;;112.30;54.00;;;;;;;-8.54;70.18;102310.04;111053;243;38947;-65
2024/01/10 01:44:50;;;;;;;122.30;56.40;;;;;;;-8.51;70.37;102310.90;111091;243;38366;-66
2024/01/10 01:47:32;;;;;;;117.70;55.00;;;;;;;-8.50;70.38;102307.08;110981;244;38589;-65
2024/01/10 01:50:11;;;;;;;124.70;58.00;;;;;;;-8.54;70.23;102302.09;111139;243;38325;-65
2024/01/10 01:52:50;;;;;;;124.10;58.50;;;;;;;-8.63;70.13;102303.11;111160;243;38343;-66
2024/01/10 01:55:28;;;;;;;123.70;57.30;;;;;;;-8.74;70.03;102311.14;111150;244;38468;-65
2024/01/10 01:58:07;;;;;;;116.00;52.80;;;;;;;-8.88;69.86;102311.98;111022;244;38441;-65
2024/01/10 02:00:43;;;;;;;109.30;51.80;;;;;;;-9.00;70.00;102310.31;111130;243;39754;-65
2024/01/10 02:03:20;;;;;;;106.40;50.40;;;;;;;-9.04;70.19;102306.77;110940;244;38393;-67
2024/01/10 02:06:03;;;;;;;107.90;51.30;;;;;;;-9.07;70.36;102310.33;111141;243;38470;-65
2024/01/10 02:08:45;;;;;;;104.40;49.80;;;;;;;-9.05;70.45;102312.63;111013;243;38417;-67
2024/01/10 02:11:23;;;;;;;108.90;49.30;;;;;;;-9.01;70.64;102312.42;111159;243;38293;-66
2024/01/10 02:14:01;;;;;;;104.00;48.90;;;;;;;-8.94;70.81;102310.75;111108;243;38747;-66
2024/01/10 02:16:35;;;;;;;102.30;50.00;;;;;;;-8.87;70.65;102316.86;111117;243;38393;-65
2024/01/10 02:19:26;;;;;;;100.50;47.90;;;;;;;-8.79;70.73;102321.41;111082;243;38398;-66
2024/01/10 02:22:06;;;;;;;104.50;47.70;;;;;;;-8.73;70.60;102317.33;111121;243;38715;-66
2024/01/10 02:24:45;;;;;;;105.30;48.50;;;;;;;-8.66;70.64;102312.73;111136;243;39497;-65
2024/01/10 02:27:20;;;;;;;99.80;47.00;;;;;;;-8.61;70.41;102311.58;111080;243;38431;-66
2024/01/10 02:29:57;;;;;;;106.90;51.10;;;;;;;-8.56;70.39;102311.22;111070;243;38319;-66
2024/01/10 02:32:36;;;;;;;109.60;52.20;;;;;;;-8.55;70.19;102312.14;111077;243;39108;-66
2024/01/10 02:35:12;;;;;;;112.30;52.70;;;;;;;-8.55;70.22;102308.59;111117;243;38287;-66
2024/01/10 02:37:46;;;;;;;111.80;54.00;;;;;;;-8.58;70.12;102307.18;111104;243;38365;-65
2024/01/10 02:40:22;;;;;;;116.20;55.90;;;;;;;-8.68;70.08;102301.73;111139;243;39225;-65
2024/01/10 02:42:58;;;;;;;117.60;54.40;;;;;;;-8.74;70.23;102299.44;111083;243;38431;-66
2024/01/10 02:45:40;;;;;;;136.00;57.20;;;;;;;-8.81;70.30;102296.75;111057;243;38274;-66
2024/01/10 02:48:27;;;;;;;118.70;55.40;;;;;;;-8.90;70.37;102291.89;111113;243;38379;-66
2024/01/10 02:51:05;;;;;;;112.20;50.70;;;;;;;-9.00;70.46;102284.27;111117;243;38319;-66
2024/01/10 02:53:43;;;;;;;100.50;47.50;;;;;;;-9.06;70.45;102278.90;111117;244;38476;-66
2024/01/10 02:56:18;;;;;;;105.90;47.50;;;;;;;-9.09;70.57;102272.80;111042;244;38654;-66
2024/01/10 02:58:56;;;;;;;104.10;49.70;;;;;;;-9.09;70.67;102270.42;111143;243;38470;-66
2024/01/10 03:01:31;;;;;;;;;;;;;;;-9.05;70.87;102260.36;111147;243;38930;-66
2024/01/10 03:04:06;;;;;;;95.00;46.90;;;;;;;-9.05;70.87;102262.27;111150;243;38349;-66
2024/01/10 03:06:41;;;;;;;98.80;45.40;;;;;;;-9.02;70.87;102266.48;111150;243;38403;-66
2024/01/10 03:09:19;;;;;;;97.90;46.00;;;;;;;-8.97;71.01;102262.86;111103;243;38404;-66
2024/01/10 03:11:54;;;;;;;99.80;48.60;;;;;;;-8.88;71.07;102261.11;111128;243;39696;-66
2024/01/10 03:14:32;;;;;;;98.00;46.40;;;;;;;-8.79;71.08;102263.95;111043;243;38849;-66
2024/01/10 03:17:09;;;;;;;93.10;44.10;;;;;;;-8.70;70.96;102260.17;111074;243;38474;-66
2024/01/10 03:19:46;;;;;;;90.10;43.60;;;;;;;-8.66;70.60;102253.05;111049;243;38307;-67
2024/01/10 03:22:23;;;;;;;92.80;44.10;;;;;;;-8.59;70.75;102247.20;111139;243;39191;-67
2024/01/10 03:25:02;;;;;;;102.10;47.50;;;;;;;-8.55;70.49;102241.91;111099;243;38321;-67
2024/01/10 03:27:40;;;;;;;101.20;48.30;;;;;;;-8.49;70.71;102237.91;111113;243;38703;-66
2024/01/10 03:30:18;;;;;;;106.70;52.80;;;;;;;-8.49;70.38;102239.95;111099;243;38662;-66
2024/01/10 03:32:51;;;;;;;109.90;50.90;;;;;;;-8.52;70.36;102243.46;111142;243;38638;-66
2024/01/10 03:35:27;;;;;;;110.30;52.60;;;;;;;-8.59;70.27;102240.82;111092;243;38251;-67
2024/01/10 03:38:03;;;;;;;104.40;51.60;;;;;;;-8.70;70.19;102244.42;111142;243;38469;-67
2024/01/10 03:40:44;;;;;;;109.00;51.70;;;;;;;-8.83;70.18;102247.08;111111;243;38377;-67
2024/01/10 03:43:21;;;;;;;110.30;53.10;;;;;;;-8.94;70.28;102249.52;111108;244;38286;-66
2024/01/10 03:46:02;;;;;;;96.80;44.40;;;;;;;-9.05;70.41;102250.39;111252;242;38567;-66
2024/01/10 03:48:47;;;;;;;97.50;44.80;;;;;;;-9.12;70.57;102249.45;111243;242;38300;-66
2024/01/10 03:51:27;;;;;;;101.70;46.70;;;;;;;-9.16;70.55;102247.82;111280;242;38400;-66
2024/01/10 03:54:08;;;;;;;98.70;46.00;;;;;;;-9.13;70.88;102242.05;111268;242;38794;-66
2024/01/10 03:56:44;;;;;;;99.90;46.40;;;;;;;-9.07;71.08;102243.16;111230;242;38318;-66
2024/01/10 03:59:23;;;;;;;93.80;45.00;;;;;;;-9.01;71.04;102240.09;111284;242;38508;-66
2024/01/10 04:02:00;;;;;;;100.50;45.20;;;;;;;-8.94;71.07;102231.95;111259;242;38377;-67
2024/01/10 04:04:39;;;;;;;89.00;43.50;;;;;;;-8.84;71.13;102232.33;111202;242;38280;-67
2024/01/10 04:07:13;;;;;;;97.50;45.80;;;;;;;-8.74;71.26;102216.39;111280;242;38374;-66
2024/01/10 04:09:50;;;;;;;102.70;46.50;;;;;;;-8.67;71.03;102210.29;111221;242;38352;-66
2024/01/10 04:12:28;;;;;;;100.50;45.70;;;;;;;-8.62;70.95;102211.31;111277;242;38263;-66
2024/01/10 04:15:08;;;;;;;99.60;47.20;;;;;;;-8.55;70.88;102209.79;111224;242;38352;-66
2024/01/10 04:17:44;;;;;;;109.20;49.80;;;;;;;-8.51;70.73;102207.70;111207;242;38939;-67
2024/01/10 04:20:18;;;;;;;109.20;51.90;;;;;;;-8.52;70.58;102209.33;111246;242;39681;-67
2024/01/10 04:22:53;;;;;;;108.40;52.00;;;;;;;-8.55;70.57;102207.58;111191;242;38518;-66
2024/01/10 04:25:28;;;;;;;110.30;53.00;;;;;;;-8.61;70.37;102201.77;111229;242;38924;-66
2024/01/10 04:28:04;;;;;;;108.80;53.70;;;;;;;-8.71;70.46;102196.02;111205;242;38326;-67
2024/01/10 04:30:39;;;;;;;105.50;53.40;;;;;;;-8.80;70.50;102197.76;111280;242;38359;-67
2024/01/10 04:33:16;;;;;;;108.80;54.80;;;;;;;-8.90;70.55;102194.00;111221;242;38912;-67
2024/01/10 04:35:50;;;;;;;103.70;48.60;;;;;;;-8.98;70.70;102190.05;111279;242;38427;-66
2024/01/10 04:38:34;;;;;;;102.80;51.40;;;;;;;-9.04;70.84;102195.71;111252;242;38396;-66
2024/01/10 04:41:18;;;;;;;99.20;49.00;;;;;;;-9.07;70.89;102193.30;111275;242;38424;-66
2024/01/10 04:43:55;;;;;;;99.20;46.00;;;;;;;-9.06;70.95;102200.27;111228;242;38291;-67
2024/01/10 04:46:33;;;;;;;99.90;47.30;;;;;;;-9.04;71.02;102202.30;111307;242;38949;-66
2024/01/10 04:49:07;;;;;;;101.60;47.30;;;;;;;-9.01;71.21;102206.74;111291;242;38350;-66
2024/01/10 04:51:46;;;;;;;104.00;47.20;;;;;;;-8.97;71.22;102207.08;111230;242;38800;-66
2024/01/10 04:54:26;;;;;;;98.30;47.10;;;;;;;-8.90;71.22;102216.52;111123;242;38344;-66
2024/01/10 04:57:03;;;;;;;94.50;47.70;;;;;;;-8.81;71.32;102217.11;111203;242;38837;-67
2024/01/10 04:59:45;;;;;;;103.20;46.30;;;;;;;-8.70;71.37;102216.48;111159;243;39451;-67
2024/01/10 05:02:18;;;;;;;;;;;;;;;-8.64;71.28;102216.75;111214;243;38320;-66
2024/01/10 05:04:55;;;;;;;94.50;45.90;;;;;;;-8.63;70.94;102215.00;111186;243;38343;-67
2024/01/10 05:07:31;;;;;;;105.20;49.60;;;;;;;-8.62;71.02;102221.12;111061;243;38557;-66
2024/01/10 05:10:08;;;;;;;108.90;52.20;;;;;;;-8.57;70.97;102223.98;111188;243;38297;-66
2024/01/10 05:12:43;;;;;;;112.00;55.20;;;;;;;-8.55;71.06;102228.08;110793;243;367272;-66
2024/01/10 05:15:20;;;;;;;112.30;53.10;;;;;;;-8.55;70.96;102234.48;111187;243;38335;-66
2024/01/10 05:17:56;;;;;;;107.50;53.20;;;;;;;-8.62;70.76;102228.41;111057;243;38344;-66
2024/01/10 05:20:35;;;;;;;118.60;55.40;;;;;;;-8.74;70.74;102222.17;111217;243;40001;-66
2024/01/10 05:23:12;;;;;;;114.90;56.90;;;;;;;-8.79;70.96;102218.95;111197;243;39561;-66
2024/01/10 05:25:48;;;;;;;121.50;58.80;;;;;;;-8.86;71.02;102221.84;111256;243;38621;-66
2024/01/10 05:28:26;;;;;;;109.60;51.90;;;;;;;-8.94;71.10;102223.13;111224;243;38307;-66
2024/01/10 05:31:00;;;;;;;109.30;50.20;;;;;;;-9.01;71.19;102224.48;111448;240;38237;-66
2024/01/10 05:33:37;;;;;;;105.20;51.30;;;;;;;-9.04;71.28;102220.22;111416;241;38242;-66
2024/01/10 05:36:13;;;;;;;105.80;50.60;;;;;;;-9.06;71.30;102219.10;111451;240;39301;-66
2024/01/10 05:38:57;;;;;;;109.20;51.00;;;;;;;-9.04;71.52;102218.56;111283;241;38755;-66
2024/01/10 05:41:30;;;;;;;106.60;49.60;;;;;;;-8.94;71.67;102225.18;111403;240;38739;-66
2024/01/10 05:44:05;;;;;;;107.10;50.20;;;;;;;-8.85;71.74;102231.72;111444;240;38172;-66
2024/01/10 05:46:43;;;;;;;101.20;47.50;;;;;;;-8.71;71.85;102228.63;111410;241;38822;-66
2024/01/10 05:49:17;;;;;;;101.10;47.70;;;;;;;-8.57;71.82;102218.41;111396;240;39250;-66
2024/01/10 05:51:58;;;;;;;107.70;51.20;;;;;;;-8.49;71.51;102217.14;111401;240;38278;-66
2024/01/10 05:54:35;;;;;;;107.90;52.20;;;;;;;-8.42;71.43;102215.44;111387;240;38425;-66
2024/01/10 05:57:15;;;;;;;111.40;54.00;;;;;;;-8.35;71.56;102216.05;111348;240;38654;-66
2024/01/10 05:59:55;;;;;;;109.10;54.90;;;;;;;-8.29;71.27;102211.00;111446;241;38333;-66
2024/01/10 06:02:33;;;;;;;112.40;54.50;;;;;;;-8.28;71.42;102201.91;111388;241;38426;-65
2024/01/10 06:05:11;;;;;;;113.00;57.30;;;;;;;-8.26;71.36;102198.33;111335;240;176174;-65
2024/01/10 06:07:45;;;;;;;119.00;57.60;;;;;;;-8.29;71.36;102192.73;111401;240;38407;-65
2024/01/10 06:10:21;;;;;;;118.50;56.90;;;;;;;-8.38;71.13;102195.17;111463;240;38631;-65
2024/01/10 06:13:00;;;;;;;117.80;58.00;;;;;;;-8.45;71.30;102191.98;111427;240;38708;-65
2024/01/10 06:15:36;;;;;;;111.80;50.60;;;;;;;-8.53;71.30;102189.77;111422;240;38339;-66
2024/01/10 06:18:14;;;;;;;103.30;48.90;;;;;;;-8.61;71.49;102188.58;111378;240;39343;-67
2024/01/10 06:20:51;;;;;;;98.50;47.30;;;;;;;-8.60;71.61;102187.61;111378;240;39082;-66
2024/01/10 06:23:27;;;;;;;104.90;48.80;;;;;;;-8.58;71.82;102187.06;111391;240;38601;-65
2024/01/10 06:26:02;;;;;;;100.10;48.60;;;;;;;-8.54;71.73;102190.02;111256;241;176502;-66
2024/01/10 06:28:39;;;;;;;99.20;48.90;;;;;;;-8.48;71.84;102192.67;111388;240;38703;-66
2024/01/10 06:31:17;;;;;;;106.80;49.40;;;;;;;-8.41;71.76;102191.29;111372;240;38835;-66
2024/01/10 06:34:01;;;;;;;106.50;51.40;;;;;;;-8.35;71.56;102198.09;111409;240;38235;-66
2024/01/10 06:36:39;;;;;;;107.50;51.80;;;;;;;-8.26;71.58;102205.08;111375;240;38387;-65
2024/01/10 06:39:19;;;;;;;109.20;52.30;;;;;;;-8.16;71.62;102204.60;111362;241;38228;-65
2024/01/10 06:41:55;;;;;;;110.40;53.70;;;;;;;-8.04;71.36;102213.69;111385;240;38512;-64
2024/01/10 06:44:35;;;;;;;119.60;57.30;;;;;;;-8.00;71.13;102216.85;111385;240;38453;-65
2024/01/10 06:47:12;;;;;;;124.40;59.00;;;;;;;-8.01;70.83;102220.16;111313;241;38976;-65
2024/01/10 06:49:50;;;;;;;120.50;58.00;;;;;;;-8.12;70.57;102219.80;111379;240;38375;-65
2024/01/10 06:52:27;;;;;;;140.60;62.10;;;;;;;-8.19;70.79;102224.22;111410;240;38777;-65
2024/01/10 06:55:05;;;;;;;131.30;61.70;;;;;;;-8.23;70.82;102223.23;111445;240;39514;-65
2024/01/10 06:57:43;;;;;;;134.70;64.20;;;;;;;-8.35;70.66;102220.65;111322;240;38348;-65
2024/01/10 07:00:21;;;;;;;126.00;61.20;;;;;;;-8.48;70.63;102220.61;111401;240;38250;-66
2024/01/10 07:02:57;;;;;;;122.20;60.30;;;;;;;-8.59;70.70;102218.13;111403;240;37304;-65
2024/01/10 07:05:32;;;;;;;110.70;53.80;;;;;;;-8.71;70.77;102221.02;111413;240;38963;-65
2024/01/10 07:08:13;;;;;;;114.30;56.20;;;;;;;-8.77;71.01;102219.89;111405;240;39341;-65
2024/01/10 07:10:47;;;;;;;112.70;53.90;;;;;;;-8.78;71.18;102221.34;111324;241;38252;-65
2024/01/10 07:13:23;;;;;;;112.60;53.80;;;;;;;-8.82;71.08;102230.09;111366;241;38477;-65
2024/01/10 07:16:05;;;;;;;107.40;54.00;;;;;;;-8.80;71.28;102231.71;111405;240;38774;-65
2024/01/10 07:18:41;;;;;;;116.40;54.90;;;;;;;-8.78;71.33;102225.95;111357;240;38284;-65
2024/01/10 07:21:21;;;;;;;112.10;54.10;;;;;;;-8.73;71.39;102229.52;111399;241;39631;-65
2024/01/10 07:23:56;;;;;;;105.60;52.30;;;;;;;-8.64;71.63;102234.39;111130;241;176429;-65
2024/01/10 07:26:31;;;;;;;113.60;53.50;;;;;;;-8.54;71.57;102234.05;111432;240;38249;-67
2024/01/10 07:29:08;;;;;;;110.50;53.70;;;;;;;-8.44;71.48;102232.18;111437;240;38391;-66
2024/01/10 07:31:44;;;;;;;111.40;54.70;;;;;;;-8.35;71.51;102233.65;111399;240;38243;-67
2024/01/10 07:34:21;;;;;;;121.40;60.80;;;;;;;-8.19;71.92;102226.08;111423;240;38584;-66
2024/01/10 07:36:57;;;;;;;129.30;61.30;;;;;;;-7.97;72.11;102220.24;111464;240;38531;-66
2024/01/10 07:39:37;;;;;;;123.90;60.90;;;;;;;-7.80;71.96;102217.30;111444;240;38480;-66
2024/01/10 07:42:13;;;;;;;123.80;62.00;;;;;;;-7.65;71.91;102212.75;111402;240;38686;-66
2024/01/10 07:44:56;;;;;;;128.60;64.30;;;;;;;-7.55;71.77;102211.84;111468;240;38268;-66
2024/01/10 07:47:37;;;;;;;127.90;62.50;;;;;;;-7.47;71.49;102208.09;111472;240;38397;-65
2024/01/10 07:50:19;;;;;;;135.50;66.00;;;;;;;-7.36;71.63;102212.55;111410;240;38428;-66
2024/01/10 07:52:54;;;;;;;132.70;64.20;;;;;;;-7.35;71.19;102215.48;111429;240;38529;-66
2024/01/10 07:55:39;;;;;;;135.50;64.90;;;;;;;-7.39;71.21;102212.70;111447;240;38307;-66
2024/01/10 07:58:18;;;;;;;130.70;64.80;;;;;;;-7.34;71.31;102214.73;111463;240;37889;-67
2024/01/10 08:00:55;;;;;;;128.40;63.80;;;;;;;-7.32;71.21;102219.06;111406;240;38472;-66
2024/01/10 08:03:35;;;;;;;132.20;64.90;;;;;;;-7.31;71.37;102215.05;111414;240;38522;-66
2024/01/10 08:06:10;;;;;;;128.80;65.00;;;;;;;-7.35;71.17;102214.70;111393;240;38329;-66
2024/01/10 08:08:46;;;;;;;125.90;60.60;;;;;;;-7.37;71.27;102216.42;111366;240;39061;-67
2024/01/10 08:11:26;;;;;;;114.20;55.10;;;;;;;-7.37;71.33;102212.17;111376;240;38357;-66
2024/01/10 08:14:03;;;;;;;116.30;54.00;;;;;;;-7.29;71.47;102215.20;111314;240;176009;-66
2024/01/10 08:16:37;;;;;;;115.50;53.40;;;;;;;-7.22;71.48;102214.48;111427;240;38313;-65
2024/01/10 08:19:14;;;;;;;102.50;51.10;;;;;;;-7.11;71.64;102210.41;111410;240;38481;-65
2024/01/10 08:21:51;;;;;;;104.20;50.50;;;;;;;-6.97;71.70;102205.13;111442;240;38236;-65
2024/01/10 08:24:28;;;;;;;108.50;49.70;;;;;;;-6.83;71.75;102209.62;111380;240;38297;-66
2024/01/10 08:27:09;;;;;;;93.10;46.20;;;;;;;-6.67;71.86;102209.77;111243;241;38234;-66
2024/01/10 08:29:45;;;;;;;95.10;47.00;;;;;;;-6.43;72.17;102209.48;111435;240;38313;-66
2024/01/10 08:32:22;;;;;;;92.60;45.40;;;;;;;-6.23;71.98;102211.39;111428;240;38387;-66
2024/01/10 08:35:04;;;;;;;94.20;46.40;;;;;;;-6.06;72.14;102200.14;111423;241;38810;-66
2024/01/10 08:37:46;;;;;;;94.50;47.60;;;;;;;-5.83;72.23;102202.63;111432;240;38792;-65
2024/01/10 08:40:27;;;;;;;101.00;49.40;;;;;;;-5.71;71.99;102202.80;111405;240;38320;-65
2024/01/10 08:43:01;;;;;;;102.90;49.70;;;;;;;-5.66;71.57;102200.73;111455;240;38847;-65
2024/01/10 08:45:38;;;;;;;107.70;50.60;;;;;;;-5.68;71.23;102192.27;111274;241;38067;-66
2024/01/10 08:48:25;;;;;;;107.60;52.60;;;;;;;-5.72;70.77;102196.83;111399;240;39021;-65
2024/01/10 08:51:04;;;;;;;108.10;55.30;;;;;;;-5.78;70.48;102201.77;111257;241;38295;-66
2024/01/10 08:53:41;;;;;;;109.40;54.50;;;;;;;-5.83;70.28;102202.45;111427;240;38549;-67
2024/01/10 08:56:17;;;;;;;113.60;56.70;;;;;;;-5.88;70.31;102206.77;111422;240;38368;-66
2024/01/10 08:58:54;;;;;;;109.60;55.80;;;;;;;-5.94;70.10;102208.16;111322;240;38406;-66
2024/01/10 09:01:29;;;;;;;117.70;56.70;;;;;;;-5.96;70.31;102215.20;111456;241;38389;-66
2024/01/10 09:04:07;;;;;;;109.50;55.60;;;;;;;-5.88;70.63;102222.55;111402;240;38564;-67
2024/01/10 09:06:44;;;;;;;110.20;55.10;;;;;;;-5.77;70.98;102234.79;111434;240;38620;-67
2024/01/10 09:09:20;;;;;;;113.60;56.40;;;;;;;-5.61;70.99;102243.50;111408;240;38319;-67
2024/01/10 09:11:58;;;;;;;110.70;56.40;;;;;;;-5.48;70.89;102238.30;111424;240;39456;-67
2024/01/10 09:14:35;;;;;;;111.30;56.10;;;;;;;-5.36;70.84;102238.11;111437;240;39488;-67
2024/01/10 09:17:15;;;;;;;111.30;55.20;;;;;;;-5.32;70.23;102232.46;111458;240;38578;-67
2024/01/10 09:19:52;;;;;;;106.40;53.20;;;;;;;-5.26;70.70;102218.80;111459;240;38781;-67
2024/01/10 09:22:30;;;;;;;105.60;53.80;;;;;;;-5.14;70.88;102215.52;111390;240;38333;-67
2024/01/10 09:25:05;;;;;;;101.70;51.30;;;;;;;-5.02;70.74;102211.64;111283;241;38903;-67
2024/01/10 09:27:44;;;;;;;100.80;52.80;;;;;;;-4.88;70.50;102214.39;111421;240;38879;-67
2024/01/10 09:30:23;;;;;;;102.10;52.30;;;;;;;-4.78;70.27;102212.77;111405;240;38292;-68
2024/01/10 09:32:58;;;;;;;96.50;49.30;;;;;;;-4.59;70.38;102204.04;111416;241;38179;-66
2024/01/10 09:35:32;;;;;;;91.60;48.20;;;;;;;-4.38;69.94;102207.36;111445;240;38281;-66
2024/01/10 09:38:08;;;;;;;84.70;42.60;;;;;;;-4.14;69.89;102211.16;111392;241;38376;-67
2024/01/10 09:40:43;;;;;;;77.80;41.50;;;;;;;-3.83;70.16;102205.92;111406;240;38945;-67
2024/01/10 09:43:18;;;;;;;84.00;44.80;;;;;;;-3.48;69.73;102204.23;111438;241;38232;-68
2024/01/10 09:45:52;;;;;;;83.20;43.50;;;;;;;-3.15;69.03;102204.11;111401;240;38387;-68
2024/01/10 09:48:27;;;;;;;83.00;44.40;;;;;;;-2.86;68.51;102199.45;111455;240;39292;-67
2024/01/10 09:51:02;;;;;;;78.60;41.40;;;;;;;-2.54;67.93;102204.02;111424;240;38262;-67
2024/01/10 09:53:41;;;;;;;74.00;41.10;;;;;;;-2.27;66.70;102201.77;111449;240;38704;-66
2024/01/10 09:56:17;;;;;;;74.80;40.20;;;;;;;-2.14;66.29;102210.91;111437;240;38282;-68
2024/01/10 09:58:57;;;;;;;63.00;35.00;;;;;;;-2.01;65.79;102210.23;111392;240;39427;-67
2024/01/10 10:01:31;;;;;;;63.40;35.10;;;;;;;-1.96;65.22;102204.97;111371;241;38360;-67
2024/01/10 10:04:05;;;;;;;64.70;36.60;;;;;;;-1.86;65.09;102197.55;111402;240;38388;-66
2024/01/10 10:06:41;;;;;;;67.20;35.30;;;;;;;-1.77;65.25;102199.63;111440;240;38303;-67
2024/01/10 10:09:19;;;;;;;61.10;34.20;;;;;;;-1.68;64.95;102202.56;111389;240;38275;-65
2024/01/10 10:11:59;;;;;;;59.60;33.60;;;;;;;-1.61;64.74;102196.36;111353;240;39352;-67
2024/01/10 10:14:37;;;;;;;61.30;33.30;;;;;;;-1.47;64.59;102189.05;111183;240;189223;-66
2024/01/10 10:17:20;;;;;;;63.70;35.20;;;;;;;-1.35;64.63;102188.69;111372;241;39465;-67
2024/01/10 10:19:58;;;;;;;62.60;34.30;;;;;;;-1.24;63.41;102184.15;111437;240;40011;-67
2024/01/10 10:22:33;;;;;;;61.30;34.60;;;;;;;-1.22;63.44;102185.39;111373;240;39795;-67
2024/01/10 10:25:09;;;;;;;64.70;34.40;;;;;;;-1.15;63.58;102178.99;111391;240;38249;-67
2024/01/10 10:27:45;;;;;;;70.60;37.70;;;;;;;-1.16;63.08;102175.55;111422;240;38459;-66
2024/01/10 10:30:20;;;;;;;67.20;37.20;;;;;;;-1.08;63.30;102175.34;111447;240;38463;-66
2024/01/10 10:32:59;;;;;;;65.10;36.30;;;;;;;-1.00;63.15;102172.89;111418;241;38529;-67
2024/01/10 10:35:36;;;;;;;67.20;37.00;;;;;;;-0.98;63.30;102174.89;111440;240;38537;-67
2024/01/10 10:38:17;;;;;;;62.70;34.80;;;;;;;-1.07;62.70;102173.52;111433;240;38558;-67
2024/01/10 10:40:55;;;;;;;61.00;34.50;;;;;;;-1.22;62.91;102167.77;111429;240;38434;-66
2024/01/10 10:43:37;;;;;;;55.00;30.80;;;;;;;-1.34;63.17;102168.53;111353;240;39305;-67
2024/01/10 10:46:12;;;;;;;;;;;;;;;-1.44;63.34;102169.65;111458;240;38220;-67
2024/01/10 10:48:54;;;;;;;52.70;28.20;;;;;;;-1.64;63.28;102164.23;111416;240;38237;-67
2024/01/10 10:51:33;;;;;;;45.30;26.30;;;;;;;-1.85;63.68;102157.71;111462;241;39195;-66
2024/01/10 10:54:11;;;;;;;51.00;27.60;;;;;;;-2.02;63.83;102149.52;111412;240;38857;-67
2024/01/10 10:56:45;;;;;;;51.60;28.20;;;;;;;-2.18;64.20;102143.02;111441;240;38430;-67
2024/01/10 10:59:21;;;;;;;52.10;27.40;;;;;;;-2.32;64.59;102142.59;111466;240;38674;-67
2024/01/10 11:01:59;;;;;;;44.10;25.20;;;;;;;-2.47;64.79;102144.00;111476;240;38353;-67
2024/01/10 11:04:36;;;;;;;41.90;24.00;;;;;;;-2.65;64.93;102139.77;111463;240;39260;-67
2024/01/10 11:07:11;;;;;;;45.00;24.50;;;;;;;-2.80;65.23;102142.00;111446;240;38828;-68
2024/01/10 11:09:47;;;;;;;49.60;25.70;;;;;;;-2.97;65.52;102140.75;111375;241;38824;-66
2024/01/10 11:12:33;;;;;;;49.00;26.00;;;;;;;-3.11;66.01;102144.38;111455;240;38713;-67
2024/01/10 11:15:23;;;;;;;49.70;25.70;;;;;;;-3.22;66.20;102142.15;111430;240;38572;-66
2024/01/10 11:18:24;;;;;;;47.80;24.90;;;;;;;-3.32;66.71;102138.63;111399;241;38682;-66
2024/01/10 11:21:20;;;;;;;47.90;26.10;;;;;;;-3.39;67.01;102138.44;111432;240;38374;-67
2024/01/10 11:23:59;;;;;;;49.50;27.00;;;;;;;-3.49;67.25;102134.90;111368;240;38668;-67
2024/01/10 11:26:34;;;;;;;53.40;27.20;;;;;;;-3.56;67.47;102128.60;111421;241;38315;-66
2024/01/10 11:29:13;;;;;;;50.20;26.90;;;;;;;-3.60;67.94;102125.52;111421;240;39192;-66
2024/01/10 11:31:57;;;;;;;50.10;26.80;;;;;;;-3.63;67.93;102126.92;111422;240;38384;-66
2024/01/10 11:34:32;;;;;;;49.20;26.90;;;;;;;-3.69;68.21;102124.73;111408;240;38341;-65
2024/01/10 11:37:17;;;;;;;49.10;25.50;;;;;;;-3.73;68.31;102117.42;111460;240;38530;-67
2024/01/10 11:40:00;;;;;;;52.40;28.40;;;;;;;-3.79;68.37;102114.88;111404;241;38300;-67
2024/01/10 11:42:46;;;;;;;50.00;26.90;;;;;;;-3.84;68.66;102110.70;111343;240;39709;-67
2024/01/10 11:45:40;;;;;;;51.30;28.50;;;;;;;-3.89;68.81;102103.14;111408;241;38366;-67
2024/01/10 11:48:17;;;;;;;48.90;25.60;;;;;;;-3.94;68.92;102099.50;111399;240;38482;-67
2024/01/10 11:50:52;;;;;;;45.60;23.60;;;;;;;-3.96;68.96;102096.51;111368;240;38803;-67
2024/01/10 11:53:50;;;;;;;46.60;25.90;;;;;;;-3.96;69.11;102095.47;111401;240;39767;-67